sensor_id;sensor_type;location;lat;lon;timestamp;P1;durP1;ratioP1;P2;durP2;ratioP2
71360;SDS011;59166;48.908;1.870;2023-03-24T00:02:26;5.57;;;1.80;;
71360;SDS011;59166;48.908;1.870;2023-03-24T00:07:29;4.85;;;1.67;;
71360;SDS011;59166;48.908;1.870;2023-03-24T00:12:30;4.57;;;1.55;;
71360;SDS011;59166;48.908;1.870;2023-03-24T00:17:31;6.53;;;2.17;;
71360;SDS011;59166;48.908;1.870;2023-03-24T00:22:34;5.40;;;1.85;;
71360;SDS011;59166;48.908;1.870;2023-03-24T00:27:34;6.35;;;1.70;;
71360;SDS011;59166;48.908;1.870;2023-03-24T00:32:36;4.67;;;1.70;;
71360;SDS011;59166;48.908;1.870;2023-03-24T00:37:39;5.55;;;1.80;;
71360;SDS011;59166;48.908;1.870;2023-03-24T00:42:40;6.25;;;1.90;;
71360;SDS011;59166;48.908;1.870;2023-03-24T00:47:42;4.20;;;1.50;;
71360;SDS011;59166;48.908;1.870;2023-03-24T00:52:45;6.00;;;1.70;;
71360;SDS011;59166;48.908;1.870;2023-03-24T00:57:46;4.25;;;1.60;;
71360;SDS011;59166;48.908;1.870;2023-03-24T01:02:48;6.10;;;1.60;;
71360;SDS011;59166;48.908;1.870;2023-03-24T01:07:51;6.17;;;1.70;;
71360;SDS011;59166;48.908;1.870;2023-03-24T01:12:55;5.25;;;1.73;;
71360;SDS011;59166;48.908;1.870;2023-03-24T01:17:58;4.65;;;1.50;;
71360;SDS011;59166;48.908;1.870;2023-03-24T01:23:00;4.50;;;1.50;;
71360;SDS011;59166;48.908;1.870;2023-03-24T01:28:02;5.85;;;1.73;;
71360;SDS011;59166;48.908;1.870;2023-03-24T01:33:04;6.45;;;1.80;;
71360;SDS011;59166;48.908;1.870;2023-03-24T01:38:07;7.27;;;2.03;;
71360;SDS011;59166;48.908;1.870;2023-03-24T01:43:14;5.57;;;1.70;;
71360;SDS011;59166;48.908;1.870;2023-03-24T01:48:34;7.30;;;1.65;;
71360;SDS011;59166;48.908;1.870;2023-03-24T01:53:42;6.00;;;1.60;;
71360;SDS011;59166;48.908;1.870;2023-03-24T01:58:47;7.37;;;1.70;;
71360;SDS011;59166;48.908;1.870;2023-03-24T02:03:52;7.03;;;1.73;;
71360;SDS011;59166;48.908;1.870;2023-03-24T02:08:55;7.22;;;1.98;;
71360;SDS011;59166;48.908;1.870;2023-03-24T02:13:58;5.30;;;1.60;;
71360;SDS011;59166;48.908;1.870;2023-03-24T02:19:14;7.22;;;1.90;;
71360;SDS011;59166;48.908;1.870;2023-03-24T02:24:54;7.20;;;1.85;;
71360;SDS011;59166;48.908;1.870;2023-03-24T02:41:31;4.55;;;1.48;;
71360;SDS011;59166;48.908;1.870;2023-03-24T02:46:40;6.87;;;1.70;;
71360;SDS011;59166;48.908;1.870;2023-03-24T02:51:47;6.57;;;1.60;;
71360;SDS011;59166;48.908;1.870;2023-03-24T02:56:55;3.85;;;1.35;;
71360;SDS011;59166;48.908;1.870;2023-03-24T03:02:03;5.97;;;1.40;;
71360;SDS011;59166;48.908;1.870;2023-03-24T03:07:06;4.33;;;1.20;;
71360;SDS011;59166;48.908;1.870;2023-03-24T03:12:11;5.13;;;1.30;;
71360;SDS011;59166;48.908;1.870;2023-03-24T03:17:14;4.22;;;1.17;;
71360;SDS011;59166;48.908;1.870;2023-03-24T03:22:20;6.60;;;1.20;;
71360;SDS011;59166;48.908;1.870;2023-03-24T03:27:27;3.50;;;1.10;;
71360;SDS011;59166;48.908;1.870;2023-03-24T03:32:32;5.28;;;1.30;;
71360;SDS011;59166;48.908;1.870;2023-03-24T03:37:39;8.23;;;1.30;;
71360;SDS011;59166;48.908;1.870;2023-03-24T03:42:48;8.23;;;1.20;;
71360;SDS011;59166;48.908;1.870;2023-03-24T03:47:49;6.32;;;1.33;;
71360;SDS011;59166;48.908;1.870;2023-03-24T03:52:50;6.97;;;1.45;;
71360;SDS011;59166;48.908;1.870;2023-03-24T03:57:53;7.23;;;1.40;;
71360;SDS011;59166;48.908;1.870;2023-03-24T04:03:02;5.75;;;1.30;;
71360;SDS011;59166;48.908;1.870;2023-03-24T04:08:17;4.10;;;1.10;;
71360;SDS011;59166;48.908;1.870;2023-03-24T04:13:25;8.00;;;1.40;;
71360;SDS011;59166;48.908;1.870;2023-03-24T04:18:40;5.03;;;1.00;;
71360;SDS011;59166;48.908;1.870;2023-03-24T04:23:53;9.05;;;1.40;;
71360;SDS011;59166;48.908;1.870;2023-03-24T04:29:03;6.83;;;1.27;;
71360;SDS011;59166;48.908;1.870;2023-03-24T04:34:12;6.30;;;1.20;;
71360;SDS011;59166;48.908;1.870;2023-03-24T04:39:19;6.13;;;1.00;;
71360;SDS011;59166;48.908;1.870;2023-03-24T04:44:24;8.45;;;1.42;;
71360;SDS011;59166;48.908;1.870;2023-03-24T04:49:27;11.27;;;1.80;;
71360;SDS011;59166;48.908;1.870;2023-03-24T04:54:28;6.22;;;1.23;;
71360;SDS011;59166;48.908;1.870;2023-03-24T04:59:30;8.35;;;1.75;;
71360;SDS011;59166;48.908;1.870;2023-03-24T05:04:31;5.67;;;1.07;;
71360;SDS011;59166;48.908;1.870;2023-03-24T05:09:32;6.80;;;1.10;;
71360;SDS011;59166;48.908;1.870;2023-03-24T05:14:35;6.43;;;1.20;;
71360;SDS011;59166;48.908;1.870;2023-03-24T05:19:35;7.73;;;1.30;;
71360;SDS011;59166;48.908;1.870;2023-03-24T05:24:36;6.95;;;1.00;;
71360;SDS011;59166;48.908;1.870;2023-03-24T05:29:39;6.67;;;1.20;;
71360;SDS011;59166;48.908;1.870;2023-03-24T05:34:40;8.25;;;1.50;;
71360;SDS011;59166;48.908;1.870;2023-03-24T05:39:41;5.18;;;1.13;;
71360;SDS011;59166;48.908;1.870;2023-03-24T05:44:43;7.67;;;1.57;;
71360;SDS011;59166;48.908;1.870;2023-03-24T05:49:44;9.80;;;1.40;;
71360;SDS011;59166;48.908;1.870;2023-03-24T05:54:45;7.90;;;1.10;;
71360;SDS011;59166;48.908;1.870;2023-03-24T05:59:47;9.93;;;1.63;;
71360;SDS011;59166;48.908;1.870;2023-03-24T06:04:48;9.82;;;1.40;;
71360;SDS011;59166;48.908;1.870;2023-03-24T06:09:48;9.33;;;1.50;;
71360;SDS011;59166;48.908;1.870;2023-03-24T06:14:50;7.80;;;1.37;;
71360;SDS011;59166;48.908;1.870;2023-03-24T06:19:51;11.13;;;1.55;;
71360;SDS011;59166;48.908;1.870;2023-03-24T06:24:51;7.77;;;1.67;;
71360;SDS011;59166;48.908;1.870;2023-03-24T06:29:54;8.85;;;1.60;;
71360;SDS011;59166;48.908;1.870;2023-03-24T06:34:55;6.33;;;1.20;;
71360;SDS011;59166;48.908;1.870;2023-03-24T06:39:55;8.75;;;1.40;;
71360;SDS011;59166;48.908;1.870;2023-03-24T06:44:57;10.20;;;1.40;;
71360;SDS011;59166;48.908;1.870;2023-03-24T06:49:58;9.80;;;1.88;;
71360;SDS011;59166;48.908;1.870;2023-03-24T06:54:59;9.70;;;1.30;;
71360;SDS011;59166;48.908;1.870;2023-03-24T07:00:01;8.63;;;1.57;;
71360;SDS011;59166;48.908;1.870;2023-03-24T07:05:02;9.55;;;1.52;;
71360;SDS011;59166;48.908;1.870;2023-03-24T07:10:04;10.07;;;1.70;;
71360;SDS011;59166;48.908;1.870;2023-03-24T07:15:07;11.27;;;1.50;;
71360;SDS011;59166;48.908;1.870;2023-03-24T07:20:09;5.93;;;1.40;;
71360;SDS011;59166;48.908;1.870;2023-03-24T07:25:10;9.80;;;1.30;;
71360;SDS011;59166;48.908;1.870;2023-03-24T07:30:12;10.93;;;1.50;;
71360;SDS011;59166;48.908;1.870;2023-03-24T07:35:13;8.52;;;1.58;;
71360;SDS011;59166;48.908;1.870;2023-03-24T07:40:15;8.68;;;1.63;;
71360;SDS011;59166;48.908;1.870;2023-03-24T07:45:17;6.63;;;1.23;;
71360;SDS011;59166;48.908;1.870;2023-03-24T07:50:19;9.98;;;1.35;;
71360;SDS011;59166;48.908;1.870;2023-03-24T07:55:20;9.50;;;1.43;;
71360;SDS011;59166;48.908;1.870;2023-03-24T08:00:22;8.60;;;1.27;;
71360;SDS011;59166;48.908;1.870;2023-03-24T08:05:23;8.70;;;1.50;;
71360;SDS011;59166;48.908;1.870;2023-03-24T08:10:24;11.80;;;1.67;;
71360;SDS011;59166;48.908;1.870;2023-03-24T08:15:27;9.75;;;1.60;;
71360;SDS011;59166;48.908;1.870;2023-03-24T08:20:28;4.43;;;1.10;;
71360;SDS011;59166;48.908;1.870;2023-03-24T08:25:29;10.00;;;1.58;;
71360;SDS011;59166;48.908;1.870;2023-03-24T08:30:31;14.13;;;1.83;;
71360;SDS011;59166;48.908;1.870;2023-03-24T08:35:32;10.43;;;1.48;;
71360;SDS011;59166;48.908;1.870;2023-03-24T08:40:34;12.93;;;1.70;;
71360;SDS011;59166;48.908;1.870;2023-03-24T08:45:37;10.03;;;1.73;;
71360;SDS011;59166;48.908;1.870;2023-03-24T08:50:39;13.55;;;1.80;;
71360;SDS011;59166;48.908;1.870;2023-03-24T08:55:41;8.68;;;1.40;;
71360;SDS011;59166;48.908;1.870;2023-03-24T09:00:43;10.87;;;1.70;;
71360;SDS011;59166;48.908;1.870;2023-03-24T09:05:44;9.07;;;1.55;;
71360;SDS011;59166;48.908;1.870;2023-03-24T09:10:45;8.77;;;1.40;;
71360;SDS011;59166;48.908;1.870;2023-03-24T09:15:48;12.67;;;1.53;;
71360;SDS011;59166;48.908;1.870;2023-03-24T09:20:50;12.40;;;1.73;;
71360;SDS011;59166;48.908;1.870;2023-03-24T09:25:51;11.67;;;1.50;;
71360;SDS011;59166;48.908;1.870;2023-03-24T09:30:56;7.32;;;0.95;;
71360;SDS011;59166;48.908;1.870;2023-03-24T09:35:58;8.63;;;1.67;;
71360;SDS011;59166;48.908;1.870;2023-03-24T09:41:00;10.70;;;1.30;;
71360;SDS011;59166;48.908;1.870;2023-03-24T09:46:03;10.98;;;1.42;;
71360;SDS011;59166;48.908;1.870;2023-03-24T09:51:11;10.60;;;1.52;;
71360;SDS011;59166;48.908;1.870;2023-03-24T09:56:19;10.47;;;1.33;;
71360;SDS011;59166;48.908;1.870;2023-03-24T10:01:22;11.52;;;1.70;;
71360;SDS011;59166;48.908;1.870;2023-03-24T10:06:24;7.70;;;1.63;;
71360;SDS011;59166;48.908;1.870;2023-03-24T10:11:29;11.23;;;1.53;;
71360;SDS011;59166;48.908;1.870;2023-03-24T10:16:42;10.60;;;1.58;;
71360;SDS011;59166;48.908;1.870;2023-03-24T10:21:51;6.70;;;1.20;;
71360;SDS011;59166;48.908;1.870;2023-03-24T10:26:59;9.30;;;1.60;;
71360;SDS011;59166;48.908;1.870;2023-03-24T10:32:08;11.73;;;1.87;;
71360;SDS011;59166;48.908;1.870;2023-03-24T10:37:14;10.18;;;1.40;;
71360;SDS011;59166;48.908;1.870;2023-03-24T10:42:16;7.85;;;1.45;;
71360;SDS011;59166;48.908;1.870;2023-03-24T10:47:23;13.30;;;1.60;;
71360;SDS011;59166;48.908;1.870;2023-03-24T10:52:25;9.10;;;1.10;;
71360;SDS011;59166;48.908;1.870;2023-03-24T10:57:26;7.95;;;1.30;;
71360;SDS011;59166;48.908;1.870;2023-03-24T11:02:28;11.30;;;1.50;;
71360;SDS011;59166;48.908;1.870;2023-03-24T11:07:31;8.68;;;1.30;;
71360;SDS011;59166;48.908;1.870;2023-03-24T11:12:34;7.30;;;1.50;;
71360;SDS011;59166;48.908;1.870;2023-03-24T11:17:38;10.43;;;1.35;;
71360;SDS011;59166;48.908;1.870;2023-03-24T11:22:39;10.30;;;1.52;;
71360;SDS011;59166;48.908;1.870;2023-03-24T11:27:40;10.20;;;1.47;;
71360;SDS011;59166;48.908;1.870;2023-03-24T11:32:45;8.60;;;1.20;;
71360;SDS011;59166;48.908;1.870;2023-03-24T11:37:47;9.77;;;1.70;;
71360;SDS011;59166;48.908;1.870;2023-03-24T11:42:55;9.67;;;1.30;;
71360;SDS011;59166;48.908;1.870;2023-03-24T11:47:59;10.63;;;1.27;;
71360;SDS011;59166;48.908;1.870;2023-03-24T11:53:05;12.25;;;1.55;;
71360;SDS011;59166;48.908;1.870;2023-03-24T11:58:13;6.43;;;1.00;;
71360;SDS011;59166;48.908;1.870;2023-03-24T12:03:29;7.25;;;1.30;;
71360;SDS011;59166;48.908;1.870;2023-03-24T12:08:41;7.05;;;1.02;;
71360;SDS011;59166;48.908;1.870;2023-03-24T12:13:51;9.53;;;1.30;;
71360;SDS011;59166;48.908;1.870;2023-03-24T12:19:16;8.20;;;1.17;;
71360;SDS011;59166;48.908;1.870;2023-03-24T12:24:31;5.75;;;0.80;;
71360;SDS011;59166;48.908;1.870;2023-03-24T12:29:48;7.23;;;1.10;;
71360;SDS011;59166;48.908;1.870;2023-03-24T12:40:52;7.93;;;1.55;;
71360;SDS011;59166;48.908;1.870;2023-03-24T12:46:16;6.00;;;1.10;;
71360;SDS011;59166;48.908;1.870;2023-03-24T12:51:32;7.33;;;1.20;;
71360;SDS011;59166;48.908;1.870;2023-03-24T12:56:44;7.95;;;1.10;;
71360;SDS011;59166;48.908;1.870;2023-03-24T13:01:50;6.30;;;0.88;;
71360;SDS011;59166;48.908;1.870;2023-03-24T13:06:54;7.57;;;1.33;;
71360;SDS011;59166;48.908;1.870;2023-03-24T13:12:02;6.35;;;1.02;;
71360;SDS011;59166;48.908;1.870;2023-03-24T13:17:11;8.68;;;1.48;;
71360;SDS011;59166;48.908;1.870;2023-03-24T13:22:17;7.23;;;1.20;;
71360;SDS011;59166;48.908;1.870;2023-03-24T13:27:22;5.17;;;0.93;;
71360;SDS011;59166;48.908;1.870;2023-03-24T13:32:26;4.10;;;1.00;;
71360;SDS011;59166;48.908;1.870;2023-03-24T13:37:32;10.43;;;1.50;;
71360;SDS011;59166;48.908;1.870;2023-03-24T13:42:41;6.43;;;1.00;;
71360;SDS011;59166;48.908;1.870;2023-03-24T13:47:47;5.28;;;1.10;;
71360;SDS011;59166;48.908;1.870;2023-03-24T13:52:48;10.40;;;1.40;;
71360;SDS011;59166;48.908;1.870;2023-03-24T13:57:53;6.77;;;1.20;;
71360;SDS011;59166;48.908;1.870;2023-03-24T14:02:58;5.90;;;1.10;;
71360;SDS011;59166;48.908;1.870;2023-03-24T14:08:16;7.05;;;1.10;;
71360;SDS011;59166;48.908;1.870;2023-03-24T14:13:34;9.60;;;1.67;;
71360;SDS011;59166;48.908;1.870;2023-03-24T14:18:40;5.97;;;1.30;;
71360;SDS011;59166;48.908;1.870;2023-03-24T14:23:41;7.38;;;1.20;;
71360;SDS011;59166;48.908;1.870;2023-03-24T14:28:45;9.13;;;1.13;;
71360;SDS011;59166;48.908;1.870;2023-03-24T14:33:56;5.47;;;1.10;;
71360;SDS011;59166;48.908;1.870;2023-03-24T14:39:08;6.07;;;1.33;;
71360;SDS011;59166;48.908;1.870;2023-03-24T14:44:11;7.50;;;1.20;;
71360;SDS011;59166;48.908;1.870;2023-03-24T14:49:19;4.50;;;0.80;;
71360;SDS011;59166;48.908;1.870;2023-03-24T14:54:25;6.88;;;0.90;;
71360;SDS011;59166;48.908;1.870;2023-03-24T14:59:40;4.38;;;0.90;;
71360;SDS011;59166;48.908;1.870;2023-03-24T15:10:15;6.68;;;1.00;;
71360;SDS011;59166;48.908;1.870;2023-03-24T15:15:20;6.78;;;1.00;;
71360;SDS011;59166;48.908;1.870;2023-03-24T15:20:22;10.33;;;1.47;;
71360;SDS011;59166;48.908;1.870;2023-03-24T15:25:25;6.80;;;1.08;;
71360;SDS011;59166;48.908;1.870;2023-03-24T15:30:28;6.60;;;1.00;;
71360;SDS011;59166;48.908;1.870;2023-03-24T15:35:29;3.50;;;0.70;;
71360;SDS011;59166;48.908;1.870;2023-03-24T15:40:33;5.87;;;1.03;;
71360;SDS011;59166;48.908;1.870;2023-03-24T15:45:43;4.70;;;0.70;;
71360;SDS011;59166;48.908;1.870;2023-03-24T15:50:55;1.25;;;0.60;;
71360;SDS011;59166;48.908;1.870;2023-03-24T15:56:05;5.00;;;0.70;;
71360;SDS011;59166;48.908;1.870;2023-03-24T16:01:16;3.95;;;0.68;;
71360;SDS011;59166;48.908;1.870;2023-03-24T16:06:26;2.85;;;0.65;;
71360;SDS011;59166;48.908;1.870;2023-03-24T16:11:28;6.23;;;1.10;;
71360;SDS011;59166;48.908;1.870;2023-03-24T16:16:35;4.40;;;0.88;;
71360;SDS011;59166;48.908;1.870;2023-03-24T16:21:37;1.70;;;0.70;;
71360;SDS011;59166;48.908;1.870;2023-03-24T16:26:38;3.10;;;0.60;;
71360;SDS011;59166;48.908;1.870;2023-03-24T16:31:40;2.10;;;0.70;;
71360;SDS011;59166;48.908;1.870;2023-03-24T16:36:41;4.10;;;0.70;;
71360;SDS011;59166;48.908;1.870;2023-03-24T16:41:41;3.50;;;0.70;;
71360;SDS011;59166;48.908;1.870;2023-03-24T16:46:44;2.53;;;0.90;;
71360;SDS011;59166;48.908;1.870;2023-03-24T16:51:46;5.63;;;1.00;;
71360;SDS011;59166;48.908;1.870;2023-03-24T16:56:47;4.87;;;0.90;;
71360;SDS011;59166;48.908;1.870;2023-03-24T17:01:51;7.25;;;0.90;;
71360;SDS011;59166;48.908;1.870;2023-03-24T17:06:52;3.63;;;0.82;;
71360;SDS011;59166;48.908;1.870;2023-03-24T17:11:54;3.47;;;0.67;;
71360;SDS011;59166;48.908;1.870;2023-03-24T17:16:57;5.70;;;0.80;;
71360;SDS011;59166;48.908;1.870;2023-03-24T17:21:58;3.87;;;0.80;;
71360;SDS011;59166;48.908;1.870;2023-03-24T17:27:00;6.70;;;0.95;;
71360;SDS011;59166;48.908;1.870;2023-03-24T17:32:03;5.25;;;1.08;;
71360;SDS011;59166;48.908;1.870;2023-03-24T17:37:03;4.77;;;0.87;;
71360;SDS011;59166;48.908;1.870;2023-03-24T17:42:04;4.78;;;0.90;;
71360;SDS011;59166;48.908;1.870;2023-03-24T17:47:06;3.77;;;0.87;;
71360;SDS011;59166;48.908;1.870;2023-03-24T17:52:07;5.75;;;0.90;;
71360;SDS011;59166;48.908;1.870;2023-03-24T17:57:08;3.40;;;1.00;;
71360;SDS011;59166;48.908;1.870;2023-03-24T18:02:10;3.28;;;0.80;;
71360;SDS011;59166;48.908;1.870;2023-03-24T18:07:12;5.47;;;0.90;;
71360;SDS011;59166;48.908;1.870;2023-03-24T18:12:19;5.78;;;1.10;;
71360;SDS011;59166;48.908;1.870;2023-03-24T18:17:22;7.40;;;1.45;;
71360;SDS011;59166;48.908;1.870;2023-03-24T18:22:26;5.60;;;1.07;;
71360;SDS011;59166;48.908;1.870;2023-03-24T18:27:26;7.70;;;1.10;;
71360;SDS011;59166;48.908;1.870;2023-03-24T18:32:28;5.23;;;0.90;;
71360;SDS011;59166;48.908;1.870;2023-03-24T18:37:29;3.33;;;0.73;;
71360;SDS011;59166;48.908;1.870;2023-03-24T18:42:30;4.27;;;0.90;;
71360;SDS011;59166;48.908;1.870;2023-03-24T18:47:32;4.40;;;1.00;;
71360;SDS011;59166;48.908;1.870;2023-03-24T18:52:33;5.30;;;0.80;;
71360;SDS011;59166;48.908;1.870;2023-03-24T18:57:34;6.37;;;1.10;;
71360;SDS011;59166;48.908;1.870;2023-03-24T19:02:36;7.20;;;1.17;;
71360;SDS011;59166;48.908;1.870;2023-03-24T19:07:37;4.88;;;1.25;;
71360;SDS011;59166;48.908;1.870;2023-03-24T19:12:37;5.53;;;0.90;;
71360;SDS011;59166;48.908;1.870;2023-03-24T19:17:39;5.10;;;0.90;;
71360;SDS011;59166;48.908;1.870;2023-03-24T19:22:40;3.87;;;0.87;;
71360;SDS011;59166;48.908;1.870;2023-03-24T19:27:41;3.73;;;0.80;;
71360;SDS011;59166;48.908;1.870;2023-03-24T19:32:43;5.27;;;1.20;;
71360;SDS011;59166;48.908;1.870;2023-03-24T19:37:43;5.80;;;1.00;;
71360;SDS011;59166;48.908;1.870;2023-03-24T19:42:44;6.40;;;1.17;;
71360;SDS011;59166;48.908;1.870;2023-03-24T19:47:46;8.33;;;1.20;;
71360;SDS011;59166;48.908;1.870;2023-03-24T19:52:47;6.93;;;0.93;;
71360;SDS011;59166;48.908;1.870;2023-03-24T19:57:47;6.03;;;0.90;;
71360;SDS011;59166;48.908;1.870;2023-03-24T20:02:49;3.63;;;0.90;;
71360;SDS011;59166;48.908;1.870;2023-03-24T20:07:50;6.28;;;0.90;;
71360;SDS011;59166;48.908;1.870;2023-03-24T20:12:51;5.80;;;0.90;;
71360;SDS011;59166;48.908;1.870;2023-03-24T20:17:54;3.00;;;0.60;;
71360;SDS011;59166;48.908;1.870;2023-03-24T20:22:54;3.83;;;1.08;;
71360;SDS011;59166;48.908;1.870;2023-03-24T20:27:55;3.50;;;0.67;;
71360;SDS011;59166;48.908;1.870;2023-03-24T20:32:57;3.05;;;0.80;;
71360;SDS011;59166;48.908;1.870;2023-03-24T20:37:58;1.53;;;0.60;;
71360;SDS011;59166;48.908;1.870;2023-03-24T20:42:58;3.55;;;0.90;;
71360;SDS011;59166;48.908;1.870;2023-03-24T20:48:03;3.73;;;0.80;;
71360;SDS011;59166;48.908;1.870;2023-03-24T20:53:05;3.90;;;0.70;;
71360;SDS011;59166;48.908;1.870;2023-03-24T20:58:06;2.03;;;0.67;;
71360;SDS011;59166;48.908;1.870;2023-03-24T21:03:18;3.73;;;0.80;;
71360;SDS011;59166;48.908;1.870;2023-03-24T21:08:19;4.05;;;0.80;;
71360;SDS011;59166;48.908;1.870;2023-03-24T21:13:22;3.33;;;0.95;;
71360;SDS011;59166;48.908;1.870;2023-03-24T21:18:32;1.67;;;0.60;;
71360;SDS011;59166;48.908;1.870;2023-03-24T21:23:42;3.85;;;0.90;;
71360;SDS011;59166;48.908;1.870;2023-03-24T21:28:43;4.57;;;1.00;;
71360;SDS011;59166;48.908;1.870;2023-03-24T21:33:45;4.30;;;0.90;;
71360;SDS011;59166;48.908;1.870;2023-03-24T21:38:46;5.30;;;0.90;;
71360;SDS011;59166;48.908;1.870;2023-03-24T21:43:47;6.60;;;1.03;;
71360;SDS011;59166;48.908;1.870;2023-03-24T21:48:50;5.60;;;0.90;;
71360;SDS011;59166;48.908;1.870;2023-03-24T21:53:52;4.53;;;0.90;;
71360;SDS011;59166;48.908;1.870;2023-03-24T21:58:53;5.00;;;1.00;;
71360;SDS011;59166;48.908;1.870;2023-03-24T22:03:58;6.78;;;1.00;;
71360;SDS011;59166;48.908;1.870;2023-03-24T22:08:59;4.65;;;0.90;;
71360;SDS011;59166;48.908;1.870;2023-03-24T22:13:59;4.37;;;0.80;;
71360;SDS011;59166;48.908;1.870;2023-03-24T22:19:01;5.27;;;0.90;;
71360;SDS011;59166;48.908;1.870;2023-03-24T22:24:02;6.47;;;0.93;;
71360;SDS011;59166;48.908;1.870;2023-03-24T22:29:03;4.93;;;0.93;;
71360;SDS011;59166;48.908;1.870;2023-03-24T22:34:05;2.63;;;0.70;;
71360;SDS011;59166;48.908;1.870;2023-03-24T22:39:06;3.17;;;0.70;;
71360;SDS011;59166;48.908;1.870;2023-03-24T22:44:07;2.00;;;0.60;;
71360;SDS011;59166;48.908;1.870;2023-03-24T22:49:09;5.97;;;1.17;;
71360;SDS011;59166;48.908;1.870;2023-03-24T22:54:10;6.30;;;1.00;;
71360;SDS011;59166;48.908;1.870;2023-03-24T22:59:10;4.13;;;1.00;;
71360;SDS011;59166;48.908;1.870;2023-03-24T23:04:12;4.97;;;1.00;;
71360;SDS011;59166;48.908;1.870;2023-03-24T23:09:13;6.20;;;0.90;;
71360;SDS011;59166;48.908;1.870;2023-03-24T23:14:14;9.73;;;1.20;;
71360;SDS011;59166;48.908;1.870;2023-03-24T23:19:16;7.10;;;1.30;;
71360;SDS011;59166;48.908;1.870;2023-03-24T23:24:17;4.03;;;0.90;;
71360;SDS011;59166;48.908;1.870;2023-03-24T23:29:17;9.57;;;1.10;;
71360;SDS011;59166;48.908;1.870;2023-03-24T23:34:19;6.65;;;1.13;;
71360;SDS011;59166;48.908;1.870;2023-03-24T23:39:20;6.93;;;1.30;;
71360;SDS011;59166;48.908;1.870;2023-03-24T23:44:20;7.00;;;0.90;;
71360;SDS011;59166;48.908;1.870;2023-03-24T23:49:23;6.50;;;1.20;;
71360;SDS011;59166;48.908;1.870;2023-03-24T23:54:24;10.77;;;1.48;;
71360;SDS011;59166;48.908;1.870;2023-03-24T23:59:24;5.17;;;1.10;;
